WetterOnline ( https://www.wetteronline.de )

Wetter aktuell Bad Alexandersbad

Aktuelles Wetter: Wunsiedel-Schönbrunn (622m)

6-stündlich | Neueste Meldungen
Ortszeit Temperatur Wetter
Mi, 27.10. 2:00 7.5° C wolkig
Di, 26.10. 20:00 7.2° C wolkig
Di, 26.10. 14:00 8.0° C bewölkt
Di, 26.10. 8:00 4.5° C bedeckt
Di, 26.10. 2:00 3.9° C bewölkt
Mo, 25.10. 20:00 6.2° C bedeckt
Mo, 25.10. 14:00 7.2° C bedeckt
Mo, 25.10. 8:00 -1.8° C leicht bewölkt
Ortszeit Temperatur Wetter
Mi, 27.10. 3:30 6.7° C wolkig
Mi, 27.10. 3:20 6.7° C wolkig
Mi, 27.10. 3:10 6.4° C leicht bewölkt
Mi, 27.10. 3:00 6.8° C wolkenlos
Mi, 27.10. 2:50 6.8° C wolkenlos
Mi, 27.10. 2:40 6.9° C leicht bewölkt
Mi, 27.10. 2:30 7.3° C wolkig
Mi, 27.10. 2:00 7.5° C wolkig
Mi, 27.10. 1:30 7.4° C bewölkt
Mi, 27.10. 1:00 7.6° C bewölkt
Mi, 27.10. 0:30 7.2° C bewölkt
Ortszeit Relative Feuchte Sichtweite
Mi, 27.10. 2:00 96% 10 km
Di, 26.10. 20:00 97% 6 km
Di, 26.10. 14:00 92% 13 km
Di, 26.10. 8:00 94% 9 km
Di, 26.10. 2:00 93% 17 km
Mo, 25.10. 20:00 85% 27 km
Mo, 25.10. 14:00 77% 35 km
Mo, 25.10. 8:00 99% 5.0 km
Ortszeit Relative Feuchte Sichtweite
Mi, 27.10. 3:30 99% 4.6 km
Mi, 27.10. 3:20 99% -
Mi, 27.10. 3:10 98% -
Mi, 27.10. 3:00 98% 6 km
Mi, 27.10. 2:50 98% -
Mi, 27.10. 2:40 99% -
Mi, 27.10. 2:30 97% 7 km
Mi, 27.10. 2:00 96% 10 km
Mi, 27.10. 1:30 97% 8 km
Mi, 27.10. 1:00 97% 10 km
Mi, 27.10. 0:30 100% 3.2 km
Ortszeit Niederschlagsmenge Niederschlagsart
Mi, 27.10. 2:00 0.0 l/m2 in 6 Std. -
Di, 26.10. 20:00 0.1 l/m2 in 12 Std. Sprühregen
Di, 26.10. 14:00 0.1 l/m2 in 6 Std. Regen
Di, 26.10. 8:00 0.0 l/m2 in 12 Std. -
Di, 26.10. 2:00 0.0 l/m2 in 6 Std. -
Mo, 25.10. 20:00 0.0 l/m2 in 12 Std. -
Mo, 25.10. 14:00 0.0 l/m2 in 6 Std. -
Mo, 25.10. 8:00 0.0 l/m2 in 12 Std. -
Ortszeit Niederschlagsmenge Niederschlagsart
Mi, 27.10. 3:30 0.0 l/m2 in 1 Std. -
Mi, 27.10. 3:20 keine Meldung -
Mi, 27.10. 3:10 keine Meldung -
Mi, 27.10. 3:00 0.0 l/m2 in 1 Std. -
Mi, 27.10. 2:50 keine Meldung -
Mi, 27.10. 2:40 keine Meldung -
Mi, 27.10. 2:30 0.0 l/m2 in 1 Std. -
Mi, 27.10. 2:00 0.0 l/m2 in 1 Std. -
Mi, 27.10. 1:30 0.0 l/m2 in 1 Std. -
Mi, 27.10. 1:00 0.0 l/m2 in 1 Std. -
Mi, 27.10. 0:30 0.0 l/m2 in 1 Std. -
Ortszeit Stärke Spitze Richtung
km/h Bft. km/h Grad Sektor
Mi, 27.10. 2:00 9 2 22 220° SW
Di, 26.10. 20:00 11 2 32 230° SW
Di, 26.10. 14:00 20 4 28 230° SW
Di, 26.10. 8:00 17 3 24 230° SW
Di, 26.10. 2:00 9 2 22 220° SW
Mo, 25.10. 20:00 13 3 22 220° SW
Mo, 25.10. 14:00 9 2 22 220° SW
Mo, 25.10. 8:00 4 1 11 150° SO
Ortszeit Stärke Spitze Richtung
km/h Bft. km/h Grad Sektor
Mi, 27.10. 3:30 4 1 14 130° SO
Mi, 27.10. 3:20 4 1 - 130° SO
Mi, 27.10. 3:10 4 1 - 230° SW
Mi, 27.10. 3:00 7 2 18 240° SW
Mi, 27.10. 2:50 7 2 - 240° SW
Mi, 27.10. 2:40 4 1 - 240° SW
Mi, 27.10. 2:30 11 2 18 230° SW
Mi, 27.10. 2:00 9 2 17 220° SW
Mi, 27.10. 1:30 7 2 14 200° S
Mi, 27.10. 1:00 9 2 19 210° SW
Mi, 27.10. 0:30 9 2 19 210° SW
Ortszeit Untergrenze Bedeckung Gattung
total tief tief mittel hoch
Mi, 27.10. 2:00 300 m 6/8 7/8 - - -
Di, 26.10. 20:00 330 m 8/8 3/8 - - -
Di, 26.10. 14:00 180 m 7/8 7/8 - - -
Di, 26.10. 8:00 240 m 8/8 8/8 - - -
Di, 26.10. 2:00 3600 m 8/8 7/8 - - -
Mo, 25.10. 20:00 4500 m 8/8 8/8 - - -
Mo, 25.10. 14:00 6000 m 8/8 8/8 - - -
Mo, 25.10. 8:00 7200 m 6/8 0/8 - - -
Ortszeit Bedeckungsgrad in Achtel und Wolkenuntergrenze
Mi, 27.10. 3:30 1(90m) 4(240m) 5(360m)
Mi, 27.10. 3:20 1(90m) 4(240m) 5(360m)
Mi, 27.10. 3:10 2(300m)
Mi, 27.10. 3:00 keine Wolken
Mi, 27.10. 2:50 keine Wolken
Mi, 27.10. 2:40 1(330m) 2(690m)
Mi, 27.10. 2:30 4(300m) 5(630m) 5(7200m)
Mi, 27.10. 2:00 4(300m) 6(480m) 7(600m)
Mi, 27.10. 1:30 1(210m) 6(510m) 7(690m)
Mi, 27.10. 1:00 4(300m) 6(540m) 7(750m)
Mi, 27.10. 0:30 2(60m) 7(480m) 7(750m)
Ortszeit Luftdruck NN (hPa) Tendenz (hPa in 3 Std.)
Mi, 27.10. 2:00 1026 - 0,2
Di, 26.10. 20:00 1026 + 1,4
Di, 26.10. 14:00 1024 0,0
Di, 26.10. 8:00 1023 + 0,8
Di, 26.10. 2:00 1023 - 0,1
Mo, 25.10. 20:00 1022 + 0,1
Mo, 25.10. 14:00 1023 - 0,4
Mo, 25.10. 8:00 1026 - 0,6
Ortszeit Luftdruck NN (hPa) Tendenz (hPa in 3 Std.)
Mi, 27.10. 3:30 1026 0,0
Mi, 27.10. 3:20 1026 keine Meldung
Mi, 27.10. 3:10 1027 keine Meldung
Mi, 27.10. 3:00 1026 - 0,2
Mi, 27.10. 2:50 1026 keine Meldung
Mi, 27.10. 2:40 1026 keine Meldung
Mi, 27.10. 2:30 1026 - 0,2
Mi, 27.10. 2:00 1026 - 0,2
Mi, 27.10. 1:30 1026 - 0,2
Mi, 27.10. 1:00 1026 - 0,2
Mi, 27.10. 0:30 1026 + 0,1
Ortszeit Schneehöhe (cm)
Mi, 27.10. 2:00 0
Di, 26.10. 20:00 0
Di, 26.10. 14:00 0
Di, 26.10. 8:00 0
Di, 26.10. 2:00 0
Mo, 25.10. 20:00 0
Mo, 25.10. 14:00 0
Mo, 25.10. 8:00 0
Ortszeit Schneehöhe (cm)
Mi, 27.10. 3:30 0
Mi, 27.10. 3:20 0
Mi, 27.10. 3:10 0
Mi, 27.10. 3:00 0
Mi, 27.10. 2:50 0
Mi, 27.10. 2:40 0
Mi, 27.10. 2:30 0
Mi, 27.10. 2:00 0
Mi, 27.10. 1:30 0
Mi, 27.10. 1:00 0
Mi, 27.10. 0:30 0
Link zu dieser Seite / Seite empfehlen

Das Wetter in ...